Time;durP1;ratioP1;P1;durP2;ratioP2;P2;SDS_P1;SDS_P2;PMS_P1;PMS_P2;Temp;Humidity;BMP_temperature;BMP_pressure;BME280_temperature;BME280_humidity;BME280_pressure;Samples;Min_cycle;Max_cycle;Signal;HPM_P1;HPM_P2
2022/04/17 00:00:05;;;;;;;;;;;;;;;20.45;41.03;102549.78;7279411;19;151601;-64
2022/04/17 00:02:37;;;;;;;;;;;;;;;20.45;40.85;102553.44;7284647;19;153795;-65
2022/04/17 00:05:04;;;;;;;;;;;;;;;20.44;40.83;102550.91;7281419;19;151741;-63
2022/04/17 00:07:32;;;;;;;;;;;;;;;20.43;41.19;102550.06;7278258;19;152768;-63
2022/04/17 00:09:59;;;;;;;;;;;;;;;20.43;41.29;102547.25;7280057;19;154022;-65
2022/04/17 00:12:28;;;;;;;;;;;;;;;20.44;41.15;102548.97;7279382;19;151762;-64
2022/04/17 00:15:03;;;;;;;;;;;;;;;20.44;41.38;102537.72;7278977;19;153766;-61
2022/04/17 00:17:29;;;;;;;;;;;;;;;20.44;41.05;102536.88;7278448;19;154254;-62
2022/04/17 00:19:56;;;;;;;;;;;;;;;20.46;41.03;102532.66;7287406;19;151811;-61
2022/04/17 00:22:23;;;;;;;;;;;;;;;20.44;41.21;102526.50;7286059;19;153075;-60
2022/04/17 00:24:52;;;;;;;;;;;;;;;20.43;41.46;102530.41;7291957;19;152762;-62
2022/04/17 00:27:19;;;;;;;;;;;;;;;20.44;41.27;102526.50;7287671;19;153340;-63
2022/04/17 00:29:46;;;;;;;;;;;;;;;20.44;41.23;102522.84;7286142;19;153976;-62
2022/04/17 00:32:12;;;;;;;;;;;;;;;20.44;41.24;102526.50;7285511;19;152015;-60
2022/04/17 00:34:39;;;;;;;;;;;;;;;20.45;41.71;102518.91;7286913;19;153377;-62
2022/04/17 00:37:06;;;;;;;;;;;;;;;20.47;41.58;102523.13;7283823;19;153901;-62
2022/04/17 00:39:33;;;;;;;;;;;;;;;20.43;41.66;102513.56;7284951;19;151926;-60
2022/04/17 00:42:02;;;;;;;;;;;;;;;20.47;41.74;102508.25;7285237;19;153606;-62
2022/04/17 00:44:28;;;;;;;;;;;;;;;20.44;41.56;102504.03;7293297;19;152401;-63
2022/04/17 00:46:55;;;;;;;;;;;;;;;20.46;41.67;102513.03;7286463;19;153137;-64
2022/04/17 00:49:22;;;;;;;;;;;;;;;20.45;41.82;102502.91;7283898;19;152397;-61
2022/04/17 00:51:49;;;;;;;;;;;;;;;20.46;41.57;102509.38;7286273;19;151820;-63
2022/04/17 00:54:17;;;;;;;;;;;;;;;20.47;41.53;102511.06;7287414;19;152741;-62
2022/04/17 00:56:46;;;;;;;;;;;;;;;20.47;41.61;102503.50;7285421;19;154134;-62
2022/04/17 00:59:13;;;;;;;;;;;;;;;20.46;41.57;102503.75;7287182;19;151776;-61
2022/04/17 01:01:41;;;;;;;;;;;;;;;20.47;42.03;102497.88;7285803;19;151694;-64
2022/04/17 01:04:09;;;;;;;;;;;;;;;20.44;41.93;102498.41;7284086;19;153733;-65
2022/04/17 01:06:38;;;;;;;;;;;;;;;20.45;41.82;102488.84;7292070;19;151686;-63
2022/04/17 01:09:04;;;;;;;;;;;;;;;20.44;41.79;102490.00;7284441;19;154233;-62
2022/04/17 01:11:31;;;;;;;;;;;;;;;20.45;41.80;102491.66;7284862;19;153186;-64
2022/04/17 01:13:58;;;;;;;;;;;;;;;20.44;42.12;102483.53;7283664;19;153907;-64
2022/04/17 01:16:25;;;;;;;;;;;;;;;20.46;41.97;102484.09;7283857;19;153229;-66
2022/04/17 01:18:56;;;;;;;;;;;;;;;20.45;42.26;102488.00;7283610;19;152408;-64
2022/04/17 01:21:24;;;;;;;;;;;;;;;20.45;41.92;102477.63;7282613;19;152613;-64
2022/04/17 01:29:22;;;;;;;;;;;;;;;20.45;42.07;102469.19;7290403;19;152642;-66
2022/04/17 01:31:48;;;;;;;;;;;;;;;20.46;42.41;102473.72;7285133;19;151749;-63
2022/04/17 01:34:16;;;;;;;;;;;;;;;20.47;42.47;102469.78;7285960;19;152894;-64
2022/04/17 01:36:44;;;;;;;;;;;;;;;20.46;42.34;102467.25;7284738;19;153256;-63
2022/04/17 01:39:11;;;;;;;;;;;;;;;20.46;42.31;102468.09;7282103;19;151857;-60
2022/04/17 01:41:38;;;;;;;;;;;;;;;20.47;42.23;102463.34;7281534;19;153497;-62
2022/04/17 01:44:07;;;;;;;;;;;;;;;20.45;42.73;102459.94;7284171;19;153221;-65
2022/04/17 01:46:34;;;;;;;;;;;;;;;20.44;42.48;102449.84;7284329;19;151830;-63
2022/04/17 01:49:02;;;;;;;;;;;;;;;20.44;42.42;102461.94;7285302;19;153389;-65
2022/04/17 01:51:33;;;;;;;;;;;;;;;20.46;42.67;102451.25;7290474;19;154258;-64
2022/04/17 01:53:59;;;;;;;;;;;;;;;20.46;42.71;102444.78;7285093;19;153664;-63
2022/04/17 01:56:26;;;;;;;;;;;;;;;20.46;42.74;102444.78;7283194;19;153605;-64
2022/04/17 01:58:53;;;;;;;;;;;;;;;20.45;42.66;102452.34;7284599;19;152565;-61
2022/04/17 02:01:20;;;;;;;;;;;;;;;20.45;42.77;102448.69;7284185;19;153316;-64
2022/04/17 02:03:47;;;;;;;;;;;;;;;20.45;42.53;102437.47;7281136;19;153970;-65
2022/04/17 02:06:13;;;;;;;;;;;;;;;20.46;42.81;102436.38;7285090;19;152056;-63
2022/04/17 02:08:42;;;;;;;;;;;;;;;20.47;42.49;102435.25;7285039;19;153042;-61
2022/04/17 02:11:08;;;;;;;;;;;;;;;20.45;42.52;102429.91;7281746;19;153946;-63
2022/04/17 02:13:36;;;;;;;;;;;;;;;20.45;42.55;102429.06;7289082;19;151635;-65
2022/04/17 02:16:03;;;;;;;;;;;;;;;20.44;42.82;102417.00;7283043;19;153945;-66
2022/04/17 02:18:29;;;;;;;;;;;;;;;20.46;42.87;102416.72;7283839;19;151769;-64
2022/04/17 02:20:56;;;;;;;;;;;;;;;20.45;42.81;102418.66;7284523;19;153432;-66
2022/04/17 02:23:23;;;;;;;;;;;;;;;20.46;42.88;102411.94;7280413;19;154472;-63
2022/04/17 02:25:49;;;;;;;;;;;;;;;20.44;42.46;102408.59;7284033;19;152099;-65
2022/04/17 02:28:16;;;;;;;;;;;;;;;20.45;42.87;102413.06;7281332;19;152178;-60
2022/04/17 02:30:43;;;;;;;;;;;;;;;20.44;43.11;102405.78;7280889;19;153972;-64
2022/04/17 02:33:10;;;;;;;;;;;;;;;20.45;43.04;102393.41;7283628;19;152128;-63
2022/04/17 02:35:37;;;;;;;;;;;;;;;20.46;43.04;102395.09;7289365;19;152743;-66
2022/04/17 02:38:04;;;;;;;;;;;;;;;20.46;43.10;102395.09;7284011;19;152647;-62
2022/04/17 02:40:31;;;;;;;;;;;;;;;20.45;42.78;102392.56;7280994;19;153197;-63
2022/04/17 02:42:59;;;;;;;;;;;;;;;20.46;42.72;102388.63;7278427;19;153739;-61
2022/04/17 02:45:27;;;;;;;;;;;;;;;20.46;42.83;102395.09;7282905;19;152108;-62
2022/04/17 02:47:53;;;;;;;;;;;;;;;20.45;43.12;102386.94;7283187;19;153368;-61
2022/04/17 02:50:22;;;;;;;;;;;;;;;20.44;42.91;102386.13;7279674;19;153778;-62
2022/04/17 02:52:53;;;;;;;;;;;;;;;20.47;43.10;102393.13;7281740;19;151813;-65
2022/04/17 02:55:19;;;;;;;;;;;;;;;20.45;43.02;102393.41;7289231;19;152738;-64
2022/04/17 02:57:46;;;;;;;;;;;;;;;20.45;42.84;102387.78;7283262;19;151872;-65
2022/04/17 03:00:13;;;;;;;;;;;;;;;20.43;42.83;102384.41;7283751;19;152728;-61
2022/04/17 03:05:36;;;;;;;;;;;;;;;20.41;43.20;102379.06;7280740;19;152457;-66
2022/04/17 03:08:07;;;;;;;;;;;;;;;20.42;43.13;102380.78;7284149;19;153213;-65
2022/04/17 03:10:38;;;;;;;;;;;;;;;20.43;42.86;102376.00;7281353;19;153229;-65
2022/04/17 03:13:05;;;;;;;;;;;;;;;20.41;43.16;102376.25;7279863;19;152192;-66
2022/04/17 03:15:33;;;;;;;;;;;;;;;20.42;42.94;102374.31;7282112;19;154007;-68
2022/04/17 03:17:59;;;;;;;;;;;;;;;20.42;43.25;102371.50;7289499;19;154584;-66
2022/04/17 03:20:26;;;;;;;;;;;;;;;20.42;42.93;102374.31;7281469;19;153574;-65
2022/04/17 03:22:53;;;;;;;;;;;;;;;20.42;43.10;102374.31;7280225;19;153249;-64
2022/04/17 03:25:20;;;;;;;;;;;;;;;20.43;43.31;102367.56;7281090;19;152003;-63
2022/04/17 03:27:47;;;;;;;;;;;;;;;20.42;43.23;102366.72;7282805;19;153048;-66
2022/04/17 03:30:15;;;;;;;;;;;;;;;20.43;43.35;102359.16;7280968;19;153794;-63
2022/04/17 03:32:42;;;;;;;;;;;;;;;20.42;43.21;102354.66;7278815;19;152223;-65
2022/04/17 03:35:14;;;;;;;;;;;;;;;20.44;43.06;102363.66;7284600;19;155245;-62
2022/04/17 03:37:44;;;;;;;;;;;;;;;20.42;43.28;102358.31;7280045;19;154381;-61
2022/04/17 03:40:12;;;;;;;;;;;;;;;20.42;43.17;102354.66;7290230;19;151965;-62
2022/04/17 03:42:39;;;;;;;;;;;;;;;20.43;43.13;102353.53;7277335;19;154687;-62
2022/04/17 03:45:17;;;;;;;;;;;;;;;20.41;43.47;102353.81;7282193;19;151826;-65
2022/04/17 03:47:44;;;;;;;;;;;;;;;20.42;43.22;102349.03;7280868;19;152808;-63
2022/04/17 03:50:11;;;;;;;;;;;;;;;20.42;43.22;102346.22;7282306;19;153204;-63
2022/04/17 03:52:42;;;;;;;;;;;;;;;20.43;43.33;102336.69;7286373;19;151917;-61
2022/04/17 03:55:12;;;;;;;;;;;;;;;20.41;43.50;102342.56;7289858;19;152790;-63
2022/04/17 03:57:40;;;;;;;;;;;;;;;20.40;43.02;102343.69;7288231;19;153133;-62
2022/04/17 04:00:12;;;;;;;;;;;;;;;20.41;43.12;102336.97;7288316;19;151733;-63
2022/04/17 04:02:39;;;;;;;;;;;;;;;20.41;43.05;102338.91;7294134;19;152676;-64
2022/04/17 04:05:09;;;;;;;;;;;;;;;20.40;42.98;102340.88;7288860;19;151844;-63
2022/04/17 04:07:40;;;;;;;;;;;;;;;20.40;43.10;102335.25;7288216;19;154733;-63
2022/04/17 04:10:08;;;;;;;;;;;;;;;20.40;43.15;102329.66;7286722;19;153865;-60
2022/04/17 04:12:35;;;;;;;;;;;;;;;20.40;43.06;102332.47;7288159;19;152568;-62
2022/04/17 04:15:02;;;;;;;;;;;;;;;20.39;43.29;102329.94;7289006;19;153310;-63
2022/04/17 04:17:30;;;;;;;;;;;;;;;20.40;43.21;102324.03;7284757;19;152786;-62
2022/04/17 04:19:57;;;;;;;;;;;;;;;20.38;43.53;102320.69;7289412;19;151770;-63
2022/04/17 04:22:24;;;;;;;;;;;;;;;20.39;43.43;102319.56;7287628;19;153312;-63
2022/04/17 04:24:51;;;;;;;;;;;;;;;20.37;43.11;102321.78;7296212;19;152649;-60
2022/04/17 04:30:03;;;;;;;;;;;;;;;20.35;43.62;102315.59;7287890;19;154226;-63
2022/04/17 04:32:30;;;;;;;;;;;;;;;20.37;43.27;102316.19;7288774;19;151927;-61
2022/04/17 04:35:04;;;;;;;;;;;;;;;20.36;43.54;102314.47;7289048;19;152792;-62
2022/04/17 04:37:34;;;;;;;;;;;;;;;20.35;43.58;102317.59;7287408;19;152623;-62
2022/04/17 04:40:01;;;;;;;;;;;;;;;20.34;43.42;102319.53;7289645;19;152033;-62
2022/04/17 04:42:28;;;;;;;;;;;;;;;20.34;43.17;102311.13;7288726;19;153405;-60
2022/04/17 04:47:42;;;;;;;;;;;;;;;20.34;43.65;102315.88;7296038;19;151760;-63
2022/04/17 04:50:09;;;;;;;;;;;;;;;20.32;43.26;102313.34;7286442;19;153970;-60
2022/04/17 04:52:36;;;;;;;;;;;;;;;20.31;43.54;102308.00;7288573;19;151701;-60
2022/04/17 04:55:04;;;;;;;;;;;;;;;20.32;43.50;102312.50;7288050;19;152571;-59
2022/04/17 04:57:35;;;;;;;;;;;;;;;20.32;43.49;102318.09;7283981;19;153067;-60
2022/04/17 05:00:06;;;;;;;;;;;;;;;20.31;43.29;102310.78;7287241;19;151740;-61
2022/04/17 05:02:37;;;;;;;;;;;;;;;20.30;43.45;102311.94;7285467;19;153540;-61
2022/04/17 05:05:09;;;;;;;;;;;;;;;20.31;43.30;102308.00;7283487;19;153309;-60
2022/04/17 05:07:36;;;;;;;;;;;;;;;20.28;43.78;102302.91;7294218;19;152078;-60
2022/04/17 05:10:04;;;;;;;;;;;;;;;20.28;43.33;102306.56;7285055;19;154157;-62
2022/04/17 05:12:31;;;;;;;;;;;;;;;20.27;43.38;102304.00;7287414;19;153558;-61
2022/04/17 05:14:58;;;;;;;;;;;;;;;20.27;43.75;102301.22;7287240;19;152657;-60
2022/04/17 05:17:25;;;;;;;;;;;;;;;20.25;43.47;102297.84;7283783;19;153325;-64
2022/04/17 05:19:51;;;;;;;;;;;;;;;20.27;43.54;102301.22;7286764;19;151950;-62
2022/04/17 05:22:20;;;;;;;;;;;;;;;20.27;43.46;102289.97;7283203;19;153540;-63
2022/04/17 05:24:46;;;;;;;;;;;;;;;20.25;43.48;102292.22;7282626;19;153948;-64
2022/04/17 05:27:13;;;;;;;;;;;;;;;20.24;43.59;102296.16;7285160;19;151927;-62
2022/04/17 05:29:40;;;;;;;;;;;;;;;20.25;43.49;102293.09;7292531;19;153265;-64
2022/04/17 05:32:07;;;;;;;;;;;;;;;20.26;43.69;102296.72;7285813;19;152340;-68
2022/04/17 05:34:35;;;;;;;;;;;;;;;20.27;43.44;102289.97;7284593;19;153264;-62
2022/04/17 05:37:03;;;;;;;;;;;;;;;20.27;44.07;102287.16;7284703;19;154323;-63
2022/04/17 05:39:30;;;;;;;;;;;;;;;20.27;43.92;102289.97;7285205;19;152066;-61
2022/04/17 05:41:58;;;;;;;;;;;;;;;20.28;43.60;102286.06;7285343;19;153737;-62
2022/04/17 05:44:25;;;;;;;;;;;;;;;20.26;43.68;102289.13;7279387;19;153311;-64
2022/04/17 05:46:51;;;;;;;;;;;;;;;20.26;43.94;102283.53;7285694;19;152168;-63
2022/04/17 05:49:19;;;;;;;;;;;;;;;20.26;43.99;102279.91;7285429;19;152793;-61
2022/04/17 05:51:46;;;;;;;;;;;;;;;20.26;44.10;102288.31;7291865;19;153558;-60
2022/04/17 05:54:12;;;;;;;;;;;;;;;20.26;43.58;102279.91;7284652;19;152595;-62
2022/04/17 05:56:39;;;;;;;;;;;;;;;20.26;43.67;102282.69;7284296;19;153621;-64
2022/04/17 05:59:07;;;;;;;;;;;;;;;20.25;43.80;102281.84;7282772;19;152027;-63
2022/04/17 06:01:34;;;;;;;;;;;;;;;20.23;43.93;102286.88;7281444;19;153045;-64
2022/04/17 06:04:04;;;;;;;;;;;;;;;20.25;44.14;102278.19;7282280;19;154189;-61
2022/04/17 06:06:30;;;;;;;;;;;;;;;20.25;44.13;102272.59;7281807;19;152163;-65
2022/04/17 06:08:57;;;;;;;;;;;;;;;20.24;44.14;102268.09;7284456;19;153444;-65
2022/04/17 06:11:24;;;;;;;;;;;;;;;20.21;44.17;102268.66;7281761;19;153298;-61
2022/04/17 06:13:51;;;;;;;;;;;;;;;20.22;43.74;102273.13;7288652;19;151998;-65
2022/04/17 06:16:17;;;;;;;;;;;;;;;20.24;43.86;102276.50;7278912;19;156037;-62
2022/04/17 06:18:45;;;;;;;;;;;;;;;20.25;44.20;102269.78;7284113;19;152068;-65
2022/04/17 06:21:12;;;;;;;;;;;;;;;20.27;43.66;102262.75;7280868;19;152203;-66
2022/04/17 06:23:39;;;;;;;;;;;;;;;20.32;43.54;102265.63;7281327;19;153436;-63
2022/04/17 06:26:08;;;;;;;;;;;;;;;20.40;43.46;102275.47;7283006;19;151536;-63
2022/04/17 06:28:36;;;;;;;;;;;;;;;20.43;43.27;102266.50;7283009;19;153441;-66
2022/04/17 06:31:03;;;;;;;;;;;;;;;20.48;43.43;102266.53;7282532;19;153271;-61
2022/04/17 06:33:30;;;;;;;;;;;;;;;20.54;43.25;102275.78;7282421;19;152461;-65
2022/04/17 06:35:57;;;;;;;;;;;;;;;20.57;43.34;102280.88;7287522;19;152022;-68
2022/04/17 06:38:23;;;;;;;;;;;;;;;20.64;42.96;102270.22;7280922;19;152679;-64
2022/04/17 06:40:50;;;;;;;;;;;;;;;20.67;42.76;102276.09;7284000;19;152718;-65
2022/04/17 06:43:16;;;;;;;;;;;;;;;20.75;42.55;102267.16;7279579;19;153481;-63
2022/04/17 06:45:44;;;;;;;;;;;;;;;20.80;42.48;102264.34;7283070;19;152190;-65
2022/04/17 06:48:11;;;;;;;;;;;;;;;20.84;42.74;102265.50;7282816;19;152651;-65
2022/04/17 06:50:39;;;;;;;;;;;;;;;20.89;42.49;102261.00;7280957;19;153221;-67
2022/04/17 06:53:05;;;;;;;;;;;;;;;20.91;42.25;102253.97;7283592;19;151881;-62
2022/04/17 06:55:33;;;;;;;;;;;;;;;20.97;42.00;102266.06;7280046;19;152639;-65
2022/04/17 06:57:59;;;;;;;;;;;;;;;21.02;42.18;102263.25;7287356;19;152053;-66
2022/04/17 07:00:26;;;;;;;;;;;;;;;21.06;41.88;102255.97;7282247;19;153439;-62
2022/04/17 07:02:53;;;;;;;;;;;;;;;21.09;41.74;102252.56;7279233;19;153714;-66
2022/04/17 07:05:20;;;;;;;;;;;;;;;21.19;42.14;102261.03;7278956;19;152182;-66
2022/04/17 07:07:46;;;;;;;;;;;;;;;21.23;42.03;102256.53;7282523;19;152527;-66
2022/04/17 07:10:13;;;;;;;;;;;;;;;21.27;42.08;102257.66;7279872;19;153198;-64
2022/04/17 07:12:42;;;;;;;;;;;;;;;21.29;41.92;102252.63;7283070;19;152184;-65
2022/04/17 07:15:15;;;;;;;;;;;;;;;21.34;41.66;102261.06;7283881;19;152929;-63
2022/04/17 07:17:41;;;;;;;;;;;;;;;21.37;41.80;102254.84;7287551;19;153329;-67
2022/04/17 07:20:09;;;;;;;;;;;;;;;21.42;41.49;102254.00;7279065;19;153307;-62
2022/04/17 07:22:36;;;;;;;;;;;;;;;21.45;41.35;102257.09;7277798;19;153919;-65
2022/04/17 07:25:06;;;;;;;;;;;;;;;21.49;41.60;102257.34;7275705;19;152157;-67
2022/04/17 07:27:41;;;;;;;;;;;;;;;21.53;40.96;102253.69;7288223;19;152696;-65
2022/04/17 07:30:08;;;;;;;;;;;;;;;21.55;40.89;102257.09;7292397;19;154491;-63
2022/04/17 07:32:35;;;;;;;;;;;;;;;21.58;40.99;102250.88;7295729;19;153315;-65
2022/04/17 07:35:02;;;;;;;;;;;;;;;21.62;40.82;102252.00;7295054;19;153274;-64
2022/04/17 07:37:32;;;;;;;;;;;;;;;21.65;40.81;102245.81;7292565;19;154086;-65
2022/04/17 07:39:58;;;;;;;;;;;;;;;21.69;40.37;102240.47;7303038;19;151758;-65
2022/04/17 07:42:25;;;;;;;;;;;;;;;21.72;40.82;102239.88;7294480;19;153896;-63
2022/04/17 07:44:52;;;;;;;;;;;;;;;21.74;40.63;102232.84;7294094;19;151557;-64
2022/04/17 07:47:19;;;;;;;;;;;;;;;21.78;40.39;102238.75;7294722;19;152022;-62
2022/04/17 07:49:46;;;;;;;;;;;;;;;21.81;40.33;102228.88;7293033;19;154022;-66
2022/04/17 07:52:12;;;;;;;;;;;;;;;21.83;40.20;102238.75;7294850;19;151890;-61
2022/04/17 07:54:47;;;;;;;;;;;;;;;21.86;40.30;102232.53;7291330;19;153334;-66
2022/04/17 07:57:14;;;;;;;;;;;;;;;21.88;39.99;102233.09;7293626;19;153914;-63
2022/04/17 07:59:41;;;;;;;;;;;;;;;21.91;40.10;102226.88;7292858;19;151868;-68
2022/04/17 08:02:28;;;;;;;;;;;;;;;21.93;39.65;102230.31;7297555;19;152378;-65
2022/04/17 08:04:55;;;;;;;;;;;;;;;21.97;39.62;102224.94;7292418;19;151524;-67
2022/04/17 08:07:22;;;;;;;;;;;;;;;21.98;39.71;102227.47;7293241;19;152733;-65
2022/04/17 08:09:49;;;;;;;;;;;;;;;22.00;39.34;102222.38;7292270;19;154220;-63
2022/04/17 08:12:20;;;;;;;;;;;;;;;22.02;39.55;102222.94;7290791;19;152092;-65
2022/04/17 08:14:47;;;;;;;;;;;;;;;22.05;39.24;102227.16;7293439;19;152607;-67
2022/04/17 08:17:13;;;;;;;;;;;;;;;22.05;39.41;102216.75;7291949;19;153124;-67
2022/04/17 08:19:40;;;;;;;;;;;;;;;22.09;38.96;102225.44;7294009;19;152597;-64
2022/04/17 08:22:07;;;;;;;;;;;;;;;22.12;39.18;102216.44;7288702;19;153403;-65
2022/04/17 08:24:34;;;;;;;;;;;;;;;22.14;39.02;102211.34;7297087;19;152072;-69
2022/04/17 08:27:00;;;;;;;;;;;;;;;22.17;38.95;102216.38;7292637;19;152560;-67
2022/04/17 08:29:27;;;;;;;;;;;;;;;22.18;38.80;102206.81;7292496;19;153295;-64
2022/04/17 08:31:54;;;;;;;;;;;;;;;22.19;38.97;102200.06;7292783;19;151594;-62
2022/04/17 08:34:21;;;;;;;;;;;;;;;22.22;38.79;102198.63;7293313;19;154764;-64
2022/04/17 08:36:48;;;;;;;;;;;;;;;22.27;38.32;102204.25;7291663;19;153705;-64
2022/04/17 08:39:16;;;;;;;;;;;;;;;22.26;38.69;102196.94;7286591;19;152134;-66
2022/04/17 08:41:45;;;;;;;;;;;;;;;22.31;38.29;102199.72;7282101;19;153167;-67
2022/04/17 08:44:11;;;;;;;;;;;;;;;22.32;38.54;102193.78;7284185;19;153345;-68
2022/04/17 08:46:39;;;;;;;;;;;;;;;22.34;38.25;102191.53;7293422;19;151634;-65
2022/04/17 08:49:08;;;;;;;;;;;;;;;22.36;38.27;102200.53;7283713;19;152723;-66
2022/04/17 08:51:36;;;;;;;;;;;;;;;22.39;37.85;102191.53;7285390;19;151969;-62
2022/04/17 08:54:03;;;;;;;;;;;;;;;22.42;37.74;102187.25;7284474;19;153828;-65
2022/04/17 08:56:30;;;;;;;;;;;;;;;22.44;37.98;102185.00;7284232;19;154041;-63
2022/04/17 08:58:58;;;;;;;;;;;;;;;22.45;37.67;102183.84;7284732;19;152026;-64
2022/04/17 09:01:25;;;;;;;;;;;;;;;22.49;37.68;102184.94;7284979;19;152992;-63
2022/04/17 09:03:52;;;;;;;;;;;;;;;22.48;37.34;102186.97;7283472;19;154258;-65
2022/04/17 09:06:20;;;;;;;;;;;;;;;22.52;36.74;102187.22;7290685;19;152034;-63
2022/04/17 09:09:03;;;;;;;;;;;;;;;22.51;36.86;102182.69;7283236;19;154316;-65
2022/04/17 09:11:32;;;;;;;;;;;;;;;22.50;36.09;102181.00;7285196;19;152016;-66
2022/04/17 09:13:59;;;;;;;;;;;;;;;22.50;36.29;102183.81;7281414;19;153319;-63
2022/04/17 09:16:27;;;;;;;;;;;;;;;22.52;36.01;102175.94;7283281;19;154520;-62
2022/04/17 09:18:55;;;;;;;;;;;;;;;22.54;35.83;102180.13;7285370;19;152242;-62
2022/04/17 09:21:34;;;;;;;;;;;;;;;22.54;35.77;102165.19;7283442;19;152591;-65
2022/04/17 09:24:20;;;;;;;;;;;;;;;22.53;35.46;102166.38;7283531;19;156339;-60
2022/04/17 09:26:47;;;;;;;;;;;;;;;22.53;35.36;102169.19;7284481;19;152097;-65
2022/04/17 09:29:25;;;;;;;;;;;;;;;22.52;35.42;102161.84;7290694;19;152607;-64
2022/04/17 09:31:59;;;;;;;;;;;;;;;22.52;35.49;102165.50;7284171;19;151950;-68
2022/04/17 09:34:26;;;;;;;;;;;;;;;22.51;35.24;102154.53;7284443;19;153763;-63
2022/04/17 09:36:58;;;;;;;;;;;;;;;22.48;35.42;102157.94;7280819;19;153526;-67
2022/04/17 09:39:34;;;;;;;;;;;;;;;22.49;34.73;102152.00;7281816;19;151925;-63
2022/04/17 09:42:02;;;;;;;;;;;;;;;22.48;35.18;102144.72;7283387;19;152586;-61
2022/04/17 09:44:35;;;;;;;;;;;;;;;22.49;34.80;102139.88;7282672;19;153140;-64
2022/04/17 09:47:03;;;;;;;;;;;;;;;22.48;34.81;102136.25;7283367;19;151993;-66
2022/04/17 09:49:30;;;;;;;;;;;;;;;22.49;34.56;102137.06;7284167;19;152789;-67
2022/04/17 09:52:09;;;;;;;;;;;;;;;22.47;34.38;102137.38;7288829;19;154248;-65
2022/04/17 09:54:36;;;;;;;;;;;;;;;22.47;34.32;102131.75;7283939;19;153415;-66
2022/04/17 09:57:03;;;;;;;;;;;;;;;22.46;34.39;102132.88;7280008;19;153505;-64
2022/04/17 09:59:30;;;;;;;;;;;;;;;22.46;34.67;102127.25;7281422;19;152299;-64
2022/04/17 10:01:57;;;;;;;;;;;;;;;22.47;33.79;102123.31;7284224;19;153560;-64
2022/04/17 10:04:25;;;;;;;;;;;;;;;22.47;34.16;102114.00;7281729;19;153832;-64
2022/04/17 10:06:53;;;;;;;;;;;;;;;22.47;34.13;102117.66;7283941;19;151871;-65
2022/04/17 10:09:20;;;;;;;;;;;;;;;22.48;34.50;102113.72;7279844;19;153319;-63
2022/04/17 10:11:49;;;;;;;;;;;;;;;22.48;33.80;102110.06;7282999;19;153292;-67
2022/04/17 10:14:16;;;;;;;;;;;;;;;22.48;33.75;102110.91;7287121;19;151825;-65
2022/04/17 10:16:43;;;;;;;;;;;;;;;22.49;33.47;102109.75;7282227;19;153908;-65
2022/04/17 10:19:15;;;;;;;;;;;;;;;22.49;33.83;102097.63;7282507;19;154019;-62
2022/04/17 10:21:42;;;;;;;;;;;;;;;22.49;33.59;102090.03;7281747;19;153357;-60
2022/04/17 10:24:13;;;;;;;;;;;;;;;22.47;33.58;102095.13;7280821;19;154024;-63
2022/04/17 10:26:45;;;;;;;;;;;;;;;22.48;33.13;102091.19;7280106;19;151951;-65
2022/04/17 10:29:13;;;;;;;;;;;;;;;22.48;32.77;102084.72;7282009;19;153677;-64
2022/04/17 10:31:49;;;;;;;;;;;;;;;22.47;32.78;102077.41;7279387;19;153756;-64
2022/04/17 10:34:34;;;;;;;;;;;;;;;22.47;32.88;102074.56;7283303;19;151951;-63
2022/04/17 10:37:16;;;;;;;;;;;;;;;22.47;33.21;102066.13;7289820;19;152887;-64
2022/04/17 10:39:47;;;;;;;;;;;;;;;22.47;33.13;102071.75;7281125;19;151961;-64
2022/04/17 10:42:14;;;;;;;;;;;;;;;22.47;33.14;102058.53;7282330;19;152597;-67
2022/04/17 10:44:41;;;;;;;;;;;;;;;22.49;33.26;102061.03;7281354;19;153501;-65
2022/04/17 10:47:21;;;;;;;;;;;;;;;22.46;32.82;102059.66;7281246;19;151985;-64
2022/04/17 10:49:52;;;;;;;;;;;;;;;22.48;32.87;102048.09;7282742;19;154280;-64
2022/04/17 10:52:27;;;;;;;;;;;;;;;22.47;32.78;102047.25;7280208;19;154354;-63
2022/04/17 10:54:55;;;;;;;;;;;;;;;22.46;32.74;102037.13;7282702;19;152119;-65
2022/04/17 10:57:23;;;;;;;;;;;;;;;22.46;32.49;102031.50;7279783;19;152556;-66
2022/04/17 10:59:50;;;;;;;;;;;;;;;22.44;32.52;102018.84;7288336;19;154430;-65
2022/04/17 11:02:16;;;;;;;;;;;;;;;22.48;32.12;102008.66;7279543;19;152604;-66
2022/04/17 11:04:53;;;;;;;;;;;;;;;22.48;32.15;102011.50;7283502;19;154737;-63
2022/04/17 11:07:20;;;;;;;;;;;;;;;22.46;32.18;102008.13;7280842;19;151954;-66
2022/04/17 11:09:47;;;;;;;;;;;;;;;22.47;32.84;102007.81;7282298;19;152930;-65
2022/04/17 11:12:27;;;;;;;;;;;;;;;22.44;32.54;101994.31;7276548;19;153608;-64
2022/04/17 11:14:57;;;;;;;;;;;;;;;22.45;32.88;102004.44;7281391;19;152073;-64
2022/04/17 11:17:24;;;;;;;;;;;;;;;22.47;32.78;102006.97;7282923;19;153003;-64
2022/04/17 11:19:54;;;;;;;;;;;;;;;22.46;32.42;101992.06;7289127;19;153976;-68
2022/04/17 11:22:25;;;;;;;;;;;;;;;22.44;32.55;101987.88;7280060;19;152918;-63
2022/04/17 11:24:54;;;;;;;;;;;;;;;22.46;32.54;101979.94;7281577;19;153476;-60
2022/04/17 11:27:35;;;;;;;;;;;;;;;22.42;33.17;101978.88;7282049;19;152200;-66
2022/04/17 11:30:03;;;;;;;;;;;;;;;22.43;32.93;101978.59;7281579;19;152405;-67
2022/04/17 11:32:30;;;;;;;;;;;;;;;22.42;32.74;101968.44;7278457;19;154331;-65
2022/04/17 11:35:00;;;;;;;;;;;;;;;22.40;32.59;101967.88;7278042;19;151968;-63
2022/04/17 11:37:28;;;;;;;;;;;;;;;22.41;32.51;101971.53;7280925;19;152478;-65
2022/04/17 11:40:27;;;;;;;;;;;;;;;22.39;32.90;101962.56;7276515;19;153300;-68
2022/04/17 11:42:55;;;;;;;;;;;;;;;22.40;32.71;101965.06;7284878;19;152449;-66
2022/04/17 11:45:23;;;;;;;;;;;;;;;22.40;32.53;101964.22;7277886;19;155665;-67
2022/04/17 11:47:49;;;;;;;;;;;;;;;22.39;32.19;101956.94;7283246;19;152137;-65
2022/04/17 11:50:20;;;;;;;;;;;;;;;22.36;32.29;101952.72;7281288;19;152580;-62
2022/04/17 11:52:50;;;;;;;;;;;;;;;22.39;32.55;101952.16;7279327;19;155185;-63
2022/04/17 11:55:22;;;;;;;;;;;;;;;22.38;32.49;101944.84;7280753;19;152298;-64
2022/04/17 11:57:49;;;;;;;;;;;;;;;22.36;32.81;101941.47;7280570;19;153494;-65
2022/04/17 12:00:15;;;;;;;;;;;;;;;22.38;32.52;101935.53;7281011;19;153565;-68
2022/04/17 12:02:42;;;;;;;;;;;;;;;22.38;32.84;101927.94;7279418;19;152029;-63
2022/04/17 12:05:16;;;;;;;;;;;;;;;22.37;33.05;101925.41;7287329;19;152526;-65
2022/04/17 12:07:44;;;;;;;;;;;;;;;22.37;32.76;101917.81;7276754;19;151552;-68
2022/04/17 12:10:13;;;;;;;;;;;;;;;22.39;32.82;101932.44;7279802;19;153581;-62
2022/04/17 12:12:45;;;;;;;;;;;;;;;22.36;32.07;101930.19;7276742;19;154084;-67
2022/04/17 12:15:16;;;;;;;;;;;;;;;22.36;32.01;101918.09;7282714;19;151824;-63
2022/04/17 12:17:43;;;;;;;;;;;;;;;22.35;31.26;101920.06;7285296;19;152688;-64
2022/04/17 12:20:12;;;;;;;;;;;;;;;22.31;30.88;101918.97;7286390;19;154016;-68
2022/04/17 12:22:40;;;;;;;;;;;;;;;22.30;31.01;101917.31;7287207;19;151898;-64
2022/04/17 12:25:16;;;;;;;;;;;;;;;22.30;30.92;101914.50;7283439;19;152661;-66
2022/04/17 12:27:45;;;;;;;;;;;;;;;22.29;30.96;101900.72;7290140;19;153977;-62
2022/04/17 12:30:12;;;;;;;;;;;;;;;22.31;31.07;101899.28;7285404;19;152602;-64
2022/04/17 12:32:45;;;;;;;;;;;;;;;22.29;31.22;101897.91;7282417;19;156907;-65
2022/04/17 12:35:25;;;;;;;;;;;;;;;22.28;31.60;101891.44;7289370;19;151936;-61
2022/04/17 12:38:06;;;;;;;;;;;;;;;22.29;31.60;101889.47;7284024;19;154323;-64
2022/04/17 12:40:43;;;;;;;;;;;;;;;22.29;31.63;101895.94;7286640;19;154110;-63
2022/04/17 12:43:19;;;;;;;;;;;;;;;22.29;31.70;101889.47;7287610;19;152111;-65
2022/04/17 12:46:04;;;;;;;;;;;;;;;22.30;31.70;101892.00;7290555;19;153418;-65
2022/04/17 12:48:33;;;;;;;;;;;;;;;22.32;31.71;101881.25;7286384;19;153421;-66